Terminal Aerodrome Forecast
Issued by NWS

Current Version | Previous Version | Text Only | Print | Product List | Glossary On
Versions: 1 2 3 4 5 6 7 8 9 10 11 12 13 14
000
FTUS42 KJAX 230500
TAFVQQ
TAF
KVQQ 230520Z 2306/2406 12012KT P6SM VCSH SCT025 OVC040
      WS020/13040KT
      TEMPO 2306/2308 3SM RA BR OVC025
     FM230800 15012KT 5SM -RA VCTS BKN015CB OVC040 WS020/16040KT
      TEMPO 2309/2313 2SM RA BKN006 OVC015
     FM231600 18014G22KT P6SM VCTS SCT025CB BKN035
     FM240000 20010KT P6SM VCSH SCT035 BKN050=

USA.gov is the U.S. government's official web portal to all federal, state and local government web resources and services.